sensor_id;sensor_type;location;lat;lon;timestamp;temperature;humidity
47825;DHT22;33589;48.242;14.676;2023-12-29T00:01:57;24.50;37.90
47825;DHT22;33589;48.242;14.676;2023-12-29T00:04:26;24.50;38.00
47825;DHT22;33589;48.242;14.676;2023-12-29T00:06:51;24.50;37.90
47825;DHT22;33589;48.242;14.676;2023-12-29T00:09:17;24.50;38.00
47825;DHT22;33589;48.242;14.676;2023-12-29T00:11:50;24.50;37.90
47825;DHT22;33589;48.242;14.676;2023-12-29T00:14:16;24.50;37.90
47825;DHT22;33589;48.242;14.676;2023-12-29T00:16:42;24.50;38.00
47825;DHT22;33589;48.242;14.676;2023-12-29T00:19:10;24.50;38.00
47825;DHT22;33589;48.242;14.676;2023-12-29T00:21:36;24.50;38.00
47825;DHT22;33589;48.242;14.676;2023-12-29T00:24:02;24.50;38.00
47825;DHT22;33589;48.242;14.676;2023-12-29T00:26:29;24.50;38.00
47825;DHT22;33589;48.242;14.676;2023-12-29T00:28:57;24.50;38.10
47825;DHT22;33589;48.242;14.676;2023-12-29T00:31:23;24.50;38.00
47825;DHT22;33589;48.242;14.676;2023-12-29T00:33:51;24.50;38.00
47825;DHT22;33589;48.242;14.676;2023-12-29T00:36:19;24.60;38.00
47825;DHT22;33589;48.242;14.676;2023-12-29T00:38:45;24.60;38.00
47825;DHT22;33589;48.242;14.676;2023-12-29T00:41:11;24.60;38.70
47825;DHT22;33589;48.242;14.676;2023-12-29T00:43:37;24.60;38.10
47825;DHT22;33589;48.242;14.676;2023-12-29T00:46:04;24.60;38.00
47825;DHT22;33589;48.242;14.676;2023-12-29T00:48:32;24.60;38.00
47825;DHT22;33589;48.242;14.676;2023-12-29T00:51:00;24.50;37.80
47825;DHT22;33589;48.242;14.676;2023-12-29T00:53:25;24.50;38.00
47825;DHT22;33589;48.242;14.676;2023-12-29T00:55:51;24.50;38.10
47825;DHT22;33589;48.242;14.676;2023-12-29T00:58:17;24.50;38.10
47825;DHT22;33589;48.242;14.676;2023-12-29T01:00:43;24.50;38.10
47825;DHT22;33589;48.242;14.676;2023-12-29T01:03:09;24.50;38.10
47825;DHT22;33589;48.242;14.676;2023-12-29T01:05:34;24.50;38.20
47825;DHT22;33589;48.242;14.676;2023-12-29T01:08:00;24.50;38.10
47825;DHT22;33589;48.242;14.676;2023-12-29T01:10:26;24.50;38.20
47825;DHT22;33589;48.242;14.676;2023-12-29T01:12:52;24.50;38.10
47825;DHT22;33589;48.242;14.676;2023-12-29T01:15:18;24.50;38.30
47825;DHT22;33589;48.242;14.676;2023-12-29T01:17:45;24.50;38.20
47825;DHT22;33589;48.242;14.676;2023-12-29T01:20:12;24.50;38.30
47825;DHT22;33589;48.242;14.676;2023-12-29T01:22:38;24.50;38.30
47825;DHT22;33589;48.242;14.676;2023-12-29T01:25:04;24.40;38.20
47825;DHT22;33589;48.242;14.676;2023-12-29T01:27:31;24.40;38.30
47825;DHT22;33589;48.242;14.676;2023-12-29T01:29:57;24.40;38.40
47825;DHT22;33589;48.242;14.676;2023-12-29T01:32:23;24.40;38.20
47825;DHT22;33589;48.242;14.676;2023-12-29T01:34:48;24.40;38.40
47825;DHT22;33589;48.242;14.676;2023-12-29T01:37:14;24.50;38.40
47825;DHT22;33589;48.242;14.676;2023-12-29T01:39:40;24.50;38.50
47825;DHT22;33589;48.242;14.676;2023-12-29T01:42:07;24.50;38.30
47825;DHT22;33589;48.242;14.676;2023-12-29T01:44:34;24.50;38.30
47825;DHT22;33589;48.242;14.676;2023-12-29T01:47:01;24.50;38.20
47825;DHT22;33589;48.242;14.676;2023-12-29T01:49:27;24.50;38.40
47825;DHT22;33589;48.242;14.676;2023-12-29T01:51:58;24.40;38.20
47825;DHT22;33589;48.242;14.676;2023-12-29T01:54:29;24.40;38.30
47825;DHT22;33589;48.242;14.676;2023-12-29T01:56:57;24.40;38.30
47825;DHT22;33589;48.242;14.676;2023-12-29T01:59:28;24.40;38.40
47825;DHT22;33589;48.242;14.676;2023-12-29T02:01:55;24.40;38.40
47825;DHT22;33589;48.242;14.676;2023-12-29T02:04:25;24.40;38.30
47825;DHT22;33589;48.242;14.676;2023-12-29T02:06:51;24.40;38.40
47825;DHT22;33589;48.242;14.676;2023-12-29T02:09:17;24.40;38.50
47825;DHT22;33589;48.242;14.676;2023-12-29T02:11:45;24.40;38.40
47825;DHT22;33589;48.242;14.676;2023-12-29T02:14:10;24.40;38.40
47825;DHT22;33589;48.242;14.676;2023-12-29T02:19:45;24.30;38.20
47825;DHT22;33589;48.242;14.676;2023-12-29T02:22:12;24.30;38.30
47825;DHT22;33589;48.242;14.676;2023-12-29T02:24:38;24.30;38.50
47825;DHT22;33589;48.242;14.676;2023-12-29T02:27:30;24.30;38.60
47825;DHT22;33589;48.242;14.676;2023-12-29T02:30:06;24.30;38.30
47825;DHT22;33589;48.242;14.676;2023-12-29T02:32:35;24.30;38.30
47825;DHT22;33589;48.242;14.676;2023-12-29T02:35:02;24.30;38.50
47825;DHT22;33589;48.242;14.676;2023-12-29T02:37:29;24.40;38.60
47825;DHT22;33589;48.242;14.676;2023-12-29T02:39:58;24.40;38.60
47825;DHT22;33589;48.242;14.676;2023-12-29T02:42:24;24.40;38.50
47825;DHT22;33589;48.242;14.676;2023-12-29T02:44:50;24.40;38.60
47825;DHT22;33589;48.242;14.676;2023-12-29T02:47:15;24.30;38.60
47825;DHT22;33589;48.242;14.676;2023-12-29T02:49:42;24.30;38.60
47825;DHT22;33589;48.242;14.676;2023-12-29T02:52:08;24.40;38.60
47825;DHT22;33589;48.242;14.676;2023-12-29T02:54:34;24.40;38.70
47825;DHT22;33589;48.242;14.676;2023-12-29T02:57:00;24.40;38.70
47825;DHT22;33589;48.242;14.676;2023-12-29T02:59:25;24.30;38.70
47825;DHT22;33589;48.242;14.676;2023-12-29T03:01:51;24.40;38.70
47825;DHT22;33589;48.242;14.676;2023-12-29T03:04:17;24.40;38.70
47825;DHT22;33589;48.242;14.676;2023-12-29T03:06:43;24.40;38.50
47825;DHT22;33589;48.242;14.676;2023-12-29T03:09:09;24.30;38.70
47825;DHT22;33589;48.242;14.676;2023-12-29T03:11:34;24.30;38.60
47825;DHT22;33589;48.242;14.676;2023-12-29T03:14:00;24.30;38.70
47825;DHT22;33589;48.242;14.676;2023-12-29T03:16:26;24.30;38.70
47825;DHT22;33589;48.242;14.676;2023-12-29T03:18:52;24.30;38.70
47825;DHT22;33589;48.242;14.676;2023-12-29T03:21:18;24.30;38.60
47825;DHT22;33589;48.242;14.676;2023-12-29T03:23:43;24.30;38.60
47825;DHT22;33589;48.242;14.676;2023-12-29T03:26:09;24.30;38.50
47825;DHT22;33589;48.242;14.676;2023-12-29T03:28:36;24.30;38.70
47825;DHT22;33589;48.242;14.676;2023-12-29T03:31:01;24.30;38.60
47825;DHT22;33589;48.242;14.676;2023-12-29T03:33:27;24.30;38.70
47825;DHT22;33589;48.242;14.676;2023-12-29T03:35:53;24.30;38.70
47825;DHT22;33589;48.242;14.676;2023-12-29T03:38:19;24.30;38.70
47825;DHT22;33589;48.242;14.676;2023-12-29T03:40:44;24.30;38.80
47825;DHT22;33589;48.242;14.676;2023-12-29T03:43:10;24.30;38.70
47825;DHT22;33589;48.242;14.676;2023-12-29T03:45:36;24.30;38.60
47825;DHT22;33589;48.242;14.676;2023-12-29T03:48:02;24.30;39.40
47825;DHT22;33589;48.242;14.676;2023-12-29T03:50:27;24.30;38.70
47825;DHT22;33589;48.242;14.676;2023-12-29T03:52:53;24.30;38.80
47825;DHT22;33589;48.242;14.676;2023-12-29T03:55:19;24.30;38.70
47825;DHT22;33589;48.242;14.676;2023-12-29T03:57:44;24.30;38.80
47825;DHT22;33589;48.242;14.676;2023-12-29T04:00:14;24.30;38.60
47825;DHT22;33589;48.242;14.676;2023-12-29T04:02:40;24.30;38.70
47825;DHT22;33589;48.242;14.676;2023-12-29T04:05:08;24.30;38.80
47825;DHT22;33589;48.242;14.676;2023-12-29T04:07:34;24.30;38.80
47825;DHT22;33589;48.242;14.676;2023-12-29T04:09:59;24.30;38.80
47825;DHT22;33589;48.242;14.676;2023-12-29T04:12:25;24.30;38.90
47825;DHT22;33589;48.242;14.676;2023-12-29T04:14:51;24.30;38.90
47825;DHT22;33589;48.242;14.676;2023-12-29T04:17:16;24.20;38.90
47825;DHT22;33589;48.242;14.676;2023-12-29T04:19:42;24.20;38.80
47825;DHT22;33589;48.242;14.676;2023-12-29T04:22:08;24.20;39.00
47825;DHT22;33589;48.242;14.676;2023-12-29T04:24:34;24.30;39.00
47825;DHT22;33589;48.242;14.676;2023-12-29T04:27:03;24.30;38.90
47825;DHT22;33589;48.242;14.676;2023-12-29T04:29:29;24.20;38.80
47825;DHT22;33589;48.242;14.676;2023-12-29T04:31:54;24.20;38.90
47825;DHT22;33589;48.242;14.676;2023-12-29T04:34:20;24.30;38.90
47825;DHT22;33589;48.242;14.676;2023-12-29T04:36:47;24.30;39.00
47825;DHT22;33589;48.242;14.676;2023-12-29T04:39:14;24.40;39.00
47825;DHT22;33589;48.242;14.676;2023-12-29T04:41:40;24.30;38.90
47825;DHT22;33589;48.242;14.676;2023-12-29T04:44:06;24.40;38.80
47825;DHT22;33589;48.242;14.676;2023-12-29T04:46:32;24.40;38.90
47825;DHT22;33589;48.242;14.676;2023-12-29T04:48:57;24.40;38.90
47825;DHT22;33589;48.242;14.676;2023-12-29T04:51:23;24.40;38.90
47825;DHT22;33589;48.242;14.676;2023-12-29T04:53:49;24.40;38.80
47825;DHT22;33589;48.242;14.676;2023-12-29T04:56:14;24.40;39.00
47825;DHT22;33589;48.242;14.676;2023-12-29T04:58:40;24.40;38.80
47825;DHT22;33589;48.242;14.676;2023-12-29T05:01:06;24.50;38.90
47825;DHT22;33589;48.242;14.676;2023-12-29T05:03:34;24.40;38.70
47825;DHT22;33589;48.242;14.676;2023-12-29T05:05:59;24.50;39.00
47825;DHT22;33589;48.242;14.676;2023-12-29T05:08:25;24.50;39.00
47825;DHT22;33589;48.242;14.676;2023-12-29T05:10:51;24.50;39.10
47825;DHT22;33589;48.242;14.676;2023-12-29T05:13:17;24.50;38.90
47825;DHT22;33589;48.242;14.676;2023-12-29T05:15:42;24.50;38.90
47825;DHT22;33589;48.242;14.676;2023-12-29T05:18:09;24.50;38.90
47825;DHT22;33589;48.242;14.676;2023-12-29T05:20:34;24.50;39.00
47825;DHT22;33589;48.242;14.676;2023-12-29T05:23:00;24.50;38.90
47825;DHT22;33589;48.242;14.676;2023-12-29T05:25:26;24.50;39.10
47825;DHT22;33589;48.242;14.676;2023-12-29T05:27:52;24.50;39.10
47825;DHT22;33589;48.242;14.676;2023-12-29T05:30:17;24.50;39.10
47825;DHT22;33589;48.242;14.676;2023-12-29T05:32:43;24.50;38.90
47825;DHT22;33589;48.242;14.676;2023-12-29T05:35:09;24.60;39.00
47825;DHT22;33589;48.242;14.676;2023-12-29T05:37:35;24.60;39.00
47825;DHT22;33589;48.242;14.676;2023-12-29T05:40:01;24.60;39.10
47825;DHT22;33589;48.242;14.676;2023-12-29T05:42:26;24.60;39.10
47825;DHT22;33589;48.242;14.676;2023-12-29T05:44:52;24.60;39.10
47825;DHT22;33589;48.242;14.676;2023-12-29T05:47:18;24.60;39.20
47825;DHT22;33589;48.242;14.676;2023-12-29T05:49:44;24.60;39.30
47825;DHT22;33589;48.242;14.676;2023-12-29T05:52:10;24.60;39.30
47825;DHT22;33589;48.242;14.676;2023-12-29T05:54:35;24.50;39.40
47825;DHT22;33589;48.242;14.676;2023-12-29T05:57:02;24.50;39.10
47825;DHT22;33589;48.242;14.676;2023-12-29T05:59:28;24.50;39.20
47825;DHT22;33589;48.242;14.676;2023-12-29T06:01:54;24.60;39.40
47825;DHT22;33589;48.242;14.676;2023-12-29T06:04:20;24.60;39.40
47825;DHT22;33589;48.242;14.676;2023-12-29T06:06:46;24.50;39.30
47825;DHT22;33589;48.242;14.676;2023-12-29T06:09:12;24.60;39.60
47825;DHT22;33589;48.242;14.676;2023-12-29T06:11:38;24.60;39.50
47825;DHT22;33589;48.242;14.676;2023-12-29T06:14:04;24.60;39.60
47825;DHT22;33589;48.242;14.676;2023-12-29T06:16:29;24.50;39.40
47825;DHT22;33589;48.242;14.676;2023-12-29T06:18:56;24.50;39.50
47825;DHT22;33589;48.242;14.676;2023-12-29T06:21:22;24.50;39.60
47825;DHT22;33589;48.242;14.676;2023-12-29T06:23:48;24.50;39.70
47825;DHT22;33589;48.242;14.676;2023-12-29T06:26:18;24.50;39.60
47825;DHT22;33589;48.242;14.676;2023-12-29T06:28:47;24.50;39.50
47825;DHT22;33589;48.242;14.676;2023-12-29T06:31:13;24.50;39.80
47825;DHT22;33589;48.242;14.676;2023-12-29T06:33:43;24.50;39.50
47825;DHT22;33589;48.242;14.676;2023-12-29T06:36:09;24.50;39.70
47825;DHT22;33589;48.242;14.676;2023-12-29T06:38:35;24.50;39.60
47825;DHT22;33589;48.242;14.676;2023-12-29T06:41:04;24.50;39.70
47825;DHT22;33589;48.242;14.676;2023-12-29T06:43:30;24.50;39.80
47825;DHT22;33589;48.242;14.676;2023-12-29T06:45:56;24.50;39.80
47825;DHT22;33589;48.242;14.676;2023-12-29T06:48:22;24.50;39.80
47825;DHT22;33589;48.242;14.676;2023-12-29T06:50:48;24.50;39.80
47825;DHT22;33589;48.242;14.676;2023-12-29T06:53:13;24.50;39.80
47825;DHT22;33589;48.242;14.676;2023-12-29T06:55:40;24.60;39.80
47825;DHT22;33589;48.242;14.676;2023-12-29T06:58:07;24.60;39.80
47825;DHT22;33589;48.242;14.676;2023-12-29T07:00:33;24.60;39.80
47825;DHT22;33589;48.242;14.676;2023-12-29T07:03:00;24.60;39.80
47825;DHT22;33589;48.242;14.676;2023-12-29T07:05:26;24.60;39.80
47825;DHT22;33589;48.242;14.676;2023-12-29T07:07:52;24.50;39.80
47825;DHT22;33589;48.242;14.676;2023-12-29T07:10:18;24.50;39.90
47825;DHT22;33589;48.242;14.676;2023-12-29T07:12:44;24.50;40.00
47825;DHT22;33589;48.242;14.676;2023-12-29T07:15:10;24.60;40.00
47825;DHT22;33589;48.242;14.676;2023-12-29T07:17:35;24.50;39.90
47825;DHT22;33589;48.242;14.676;2023-12-29T07:20:01;24.50;40.00
47825;DHT22;33589;48.242;14.676;2023-12-29T07:22:27;24.50;40.00
47825;DHT22;33589;48.242;14.676;2023-12-29T07:24:53;24.50;40.10
47825;DHT22;33589;48.242;14.676;2023-12-29T07:27:19;24.50;39.90
47825;DHT22;33589;48.242;14.676;2023-12-29T07:29:45;24.60;40.20
47825;DHT22;33589;48.242;14.676;2023-12-29T07:32:10;24.60;40.10
47825;DHT22;33589;48.242;14.676;2023-12-29T07:34:36;24.60;40.20
47825;DHT22;33589;48.242;14.676;2023-12-29T07:37:02;24.60;40.00
47825;DHT22;33589;48.242;14.676;2023-12-29T07:39:28;24.60;40.20
47825;DHT22;33589;48.242;14.676;2023-12-29T07:41:54;24.60;40.10
47825;DHT22;33589;48.242;14.676;2023-12-29T07:44:21;24.60;40.10
47825;DHT22;33589;48.242;14.676;2023-12-29T07:46:47;24.60;40.30
47825;DHT22;33589;48.242;14.676;2023-12-29T07:49:13;24.60;40.30
47825;DHT22;33589;48.242;14.676;2023-12-29T07:51:42;24.60;40.20
47825;DHT22;33589;48.242;14.676;2023-12-29T07:54:09;24.60;39.90
47825;DHT22;33589;48.242;14.676;2023-12-29T07:56:35;24.60;40.10
47825;DHT22;33589;48.242;14.676;2023-12-29T07:59:03;24.60;40.10
47825;DHT22;33589;48.242;14.676;2023-12-29T08:01:29;24.60;40.00
47825;DHT22;33589;48.242;14.676;2023-12-29T08:03:54;24.60;40.20
47825;DHT22;33589;48.242;14.676;2023-12-29T08:06:20;24.60;40.30
47825;DHT22;33589;48.242;14.676;2023-12-29T08:08:46;24.60;40.80
47825;DHT22;33589;48.242;14.676;2023-12-29T08:11:15;24.60;40.40
47825;DHT22;33589;48.242;14.676;2023-12-29T08:13:43;24.60;40.30
47825;DHT22;33589;48.242;14.676;2023-12-29T08:16:10;24.60;40.30
47825;DHT22;33589;48.242;14.676;2023-12-29T08:18:36;24.60;40.40
47825;DHT22;33589;48.242;14.676;2023-12-29T08:21:02;24.60;40.40
47825;DHT22;33589;48.242;14.676;2023-12-29T08:23:28;24.60;40.40
47825;DHT22;33589;48.242;14.676;2023-12-29T08:25:55;24.60;40.50
47825;DHT22;33589;48.242;14.676;2023-12-29T08:28:21;24.60;40.30
47825;DHT22;33589;48.242;14.676;2023-12-29T08:30:47;24.60;40.40
47825;DHT22;33589;48.242;14.676;2023-12-29T08:33:13;24.60;40.30
47825;DHT22;33589;48.242;14.676;2023-12-29T08:35:40;24.60;40.30
47825;DHT22;33589;48.242;14.676;2023-12-29T08:38:06;24.60;40.40
47825;DHT22;33589;48.242;14.676;2023-12-29T08:40:32;24.60;40.50
47825;DHT22;33589;48.242;14.676;2023-12-29T08:42:58;24.60;40.20
47825;DHT22;33589;48.242;14.676;2023-12-29T08:45:24;24.60;40.40
47825;DHT22;33589;48.242;14.676;2023-12-29T08:47:50;24.60;40.40
47825;DHT22;33589;48.242;14.676;2023-12-29T08:50:15;24.60;40.70
47825;DHT22;33589;48.242;14.676;2023-12-29T08:52:42;24.60;40.40
47825;DHT22;33589;48.242;14.676;2023-12-29T08:55:08;24.60;40.60
47825;DHT22;33589;48.242;14.676;2023-12-29T08:57:35;24.60;40.40
47825;DHT22;33589;48.242;14.676;2023-12-29T09:00:01;24.60;40.60
47825;DHT22;33589;48.242;14.676;2023-12-29T09:02:27;24.60;40.40
47825;DHT22;33589;48.242;14.676;2023-12-29T09:04:52;24.40;40.40
47825;DHT22;33589;48.242;14.676;2023-12-29T09:07:18;24.60;40.50
47825;DHT22;33589;48.242;14.676;2023-12-29T09:09:44;24.60;40.50
47825;DHT22;33589;48.242;14.676;2023-12-29T09:12:10;24.60;40.50
47825;DHT22;33589;48.242;14.676;2023-12-29T09:14:35;24.60;40.60
47825;DHT22;33589;48.242;14.676;2023-12-29T09:17:01;24.50;40.40
47825;DHT22;33589;48.242;14.676;2023-12-29T09:19:27;24.60;40.80
47825;DHT22;33589;48.242;14.676;2023-12-29T09:21:53;24.50;40.60
47825;DHT22;33589;48.242;14.676;2023-12-29T09:24:19;24.60;40.70
47825;DHT22;33589;48.242;14.676;2023-12-29T09:26:44;24.50;40.70
47825;DHT22;33589;48.242;14.676;2023-12-29T09:29:10;24.50;40.80
47825;DHT22;33589;48.242;14.676;2023-12-29T09:31:36;24.50;40.70
47825;DHT22;33589;48.242;14.676;2023-12-29T09:34:02;24.50;40.80
47825;DHT22;33589;48.242;14.676;2023-12-29T09:36:28;24.50;40.60
47825;DHT22;33589;48.242;14.676;2023-12-29T09:38:53;24.50;40.80
47825;DHT22;33589;48.242;14.676;2023-12-29T09:41:23;24.60;40.80
47825;DHT22;33589;48.242;14.676;2023-12-29T09:43:50;24.60;40.80
47825;DHT22;33589;48.242;14.676;2023-12-29T09:46:21;24.50;40.70
47825;DHT22;33589;48.242;14.676;2023-12-29T09:48:47;24.50;40.80
47825;DHT22;33589;48.242;14.676;2023-12-29T09:51:16;24.50;40.80
47825;DHT22;33589;48.242;14.676;2023-12-29T09:53:43;24.50;40.80
47825;DHT22;33589;48.242;14.676;2023-12-29T09:56:09;24.60;40.90
47825;DHT22;33589;48.242;14.676;2023-12-29T09:58:35;24.50;40.80
47825;DHT22;33589;48.242;14.676;2023-12-29T10:01:04;24.50;40.60
47825;DHT22;33589;48.242;14.676;2023-12-29T10:03:33;24.60;40.80
47825;DHT22;33589;48.242;14.676;2023-12-29T10:06:06;24.50;40.90
47825;DHT22;33589;48.242;14.676;2023-12-29T10:08:34;24.60;41.00
47825;DHT22;33589;48.242;14.676;2023-12-29T10:11:01;24.60;41.10
47825;DHT22;33589;48.242;14.676;2023-12-29T10:13:28;24.60;41.00
47825;DHT22;33589;48.242;14.676;2023-12-29T10:16:04;24.60;41.00
47825;DHT22;33589;48.242;14.676;2023-12-29T10:18:45;24.60;40.60
47825;DHT22;33589;48.242;14.676;2023-12-29T10:21:27;24.60;41.10
47825;DHT22;33589;48.242;14.676;2023-12-29T10:24:03;24.60;41.10
47825;DHT22;33589;48.242;14.676;2023-12-29T10:26:31;24.60;41.10
47825;DHT22;33589;48.242;14.676;2023-12-29T10:28:58;24.60;41.10
47825;DHT22;33589;48.242;14.676;2023-12-29T10:31:24;24.60;41.10
47825;DHT22;33589;48.242;14.676;2023-12-29T10:33:51;24.60;41.20
47825;DHT22;33589;48.242;14.676;2023-12-29T10:36:18;24.60;41.10
47825;DHT22;33589;48.242;14.676;2023-12-29T10:38:43;24.60;41.20
47825;DHT22;33589;48.242;14.676;2023-12-29T10:41:18;24.60;41.10
47825;DHT22;33589;48.242;14.676;2023-12-29T10:43:45;24.60;41.00
47825;DHT22;33589;48.242;14.676;2023-12-29T10:46:18;24.60;41.00
47825;DHT22;33589;48.242;14.676;2023-12-29T10:48:44;24.60;41.10
47825;DHT22;33589;48.242;14.676;2023-12-29T10:51:10;24.60;41.00
47825;DHT22;33589;48.242;14.676;2023-12-29T10:53:37;24.60;41.00
47825;DHT22;33589;48.242;14.676;2023-12-29T10:56:04;24.60;41.10
47825;DHT22;33589;48.242;14.676;2023-12-29T10:58:30;24.60;41.10
47825;DHT22;33589;48.242;14.676;2023-12-29T11:01:00;24.60;41.00
47825;DHT22;33589;48.242;14.676;2023-12-29T11:03:26;24.60;40.70
47825;DHT22;33589;48.242;14.676;2023-12-29T11:06:01;24.60;41.80
47825;DHT22;33589;48.242;14.676;2023-12-29T11:08:27;24.60;41.10
47825;DHT22;33589;48.242;14.676;2023-12-29T11:10:54;24.60;41.20
47825;DHT22;33589;48.242;14.676;2023-12-29T11:13:20;24.60;41.10
47825;DHT22;33589;48.242;14.676;2023-12-29T11:15:47;24.60;41.10
47825;DHT22;33589;48.242;14.676;2023-12-29T11:18:14;24.60;41.20
47825;DHT22;33589;48.242;14.676;2023-12-29T11:20:41;24.60;41.10
47825;DHT22;33589;48.242;14.676;2023-12-29T11:23:09;24.60;41.10
47825;DHT22;33589;48.242;14.676;2023-12-29T11:25:35;24.60;41.10
47825;DHT22;33589;48.242;14.676;2023-12-29T11:28:01;24.60;41.10
47825;DHT22;33589;48.242;14.676;2023-12-29T11:30:28;24.60;41.10
47825;DHT22;33589;48.242;14.676;2023-12-29T11:33:03;24.60;41.10
47825;DHT22;33589;48.242;14.676;2023-12-29T11:44:02;24.60;41.00
47825;DHT22;33589;48.242;14.676;2023-12-29T11:46:34;24.50;41.30
47825;DHT22;33589;48.242;14.676;2023-12-29T11:49:01;24.50;41.30
47825;DHT22;33589;48.242;14.676;2023-12-29T11:51:41;24.60;41.30
47825;DHT22;33589;48.242;14.676;2023-12-29T11:54:09;24.60;41.10
47825;DHT22;33589;48.242;14.676;2023-12-29T11:56:39;24.60;41.60
47825;DHT22;33589;48.242;14.676;2023-12-29T11:59:22;24.50;41.30
47825;DHT22;33589;48.242;14.676;2023-12-29T12:01:56;24.50;41.40
47825;DHT22;33589;48.242;14.676;2023-12-29T12:04:41;24.60;41.20
47825;DHT22;33589;48.242;14.676;2023-12-29T12:07:16;24.60;41.30
47825;DHT22;33589;48.242;14.676;2023-12-29T12:09:42;24.60;41.30
47825;DHT22;33589;48.242;14.676;2023-12-29T12:12:10;24.50;41.60
47825;DHT22;33589;48.242;14.676;2023-12-29T12:14:52;24.50;41.70
47825;DHT22;33589;48.242;14.676;2023-12-29T12:17:32;24.60;41.80
47825;DHT22;33589;48.242;14.676;2023-12-29T12:22:31;24.60;41.60
47825;DHT22;33589;48.242;14.676;2023-12-29T12:24:59;24.80;42.60
47825;DHT22;33589;48.242;14.676;2023-12-29T12:27:26;24.60;41.70
47825;DHT22;33589;48.242;14.676;2023-12-29T12:29:53;24.60;41.80
47825;DHT22;33589;48.242;14.676;2023-12-29T12:32:22;24.60;41.80
47825;DHT22;33589;48.242;14.676;2023-12-29T12:34:48;24.50;41.90
47825;DHT22;33589;48.242;14.676;2023-12-29T12:37:28;24.60;41.90
47825;DHT22;33589;48.242;14.676;2023-12-29T12:39:55;24.60;41.50
47825;DHT22;33589;48.242;14.676;2023-12-29T12:42:22;24.60;41.90
47825;DHT22;33589;48.242;14.676;2023-12-29T12:44:56;24.60;42.00
47825;DHT22;33589;48.242;14.676;2023-12-29T12:47:45;24.60;42.00
47825;DHT22;33589;48.242;14.676;2023-12-29T12:50:16;24.60;42.00
47825;DHT22;33589;48.242;14.676;2023-12-29T12:52:42;24.60;42.10
47825;DHT22;33589;48.242;14.676;2023-12-29T12:55:08;24.60;42.00
47825;DHT22;33589;48.242;14.676;2023-12-29T12:57:35;24.60;42.00
47825;DHT22;33589;48.242;14.676;2023-12-29T13:00:03;24.60;42.10
47825;DHT22;33589;48.242;14.676;2023-12-29T13:02:30;24.60;41.90
47825;DHT22;33589;48.242;14.676;2023-12-29T13:04:58;24.60;42.00
47825;DHT22;33589;48.242;14.676;2023-12-29T13:07:24;24.60;42.00
47825;DHT22;33589;48.242;14.676;2023-12-29T13:09:50;24.60;42.10
47825;DHT22;33589;48.242;14.676;2023-12-29T13:12:17;24.50;42.00
47825;DHT22;33589;48.242;14.676;2023-12-29T13:14:44;24.60;42.20
47825;DHT22;33589;48.242;14.676;2023-12-29T13:17:13;24.60;42.20
47825;DHT22;33589;48.242;14.676;2023-12-29T13:19:40;24.60;42.30
47825;DHT22;33589;48.242;14.676;2023-12-29T13:22:08;24.60;42.30
47825;DHT22;33589;48.242;14.676;2023-12-29T13:24:35;24.60;42.30
47825;DHT22;33589;48.242;14.676;2023-12-29T13:27:07;24.60;42.30
47825;DHT22;33589;48.242;14.676;2023-12-29T13:29:35;24.60;42.40
47825;DHT22;33589;48.242;14.676;2023-12-29T13:32:09;24.60;42.40
47825;DHT22;33589;48.242;14.676;2023-12-29T13:37:35;24.60;42.70
47825;DHT22;33589;48.242;14.676;2023-12-29T13:40:22;24.60;42.50
47825;DHT22;33589;48.242;14.676;2023-12-29T13:42:51;24.60;42.50
47825;DHT22;33589;48.242;14.676;2023-12-29T13:45:19;24.60;42.50
47825;DHT22;33589;48.242;14.676;2023-12-29T13:47:46;24.60;42.50
47825;DHT22;33589;48.242;14.676;2023-12-29T13:50:12;24.60;42.60
47825;DHT22;33589;48.242;14.676;2023-12-29T13:52:38;24.60;42.50
47825;DHT22;33589;48.242;14.676;2023-12-29T13:55:04;24.50;42.60
47825;DHT22;33589;48.242;14.676;2023-12-29T13:57:32;24.50;42.40
47825;DHT22;33589;48.242;14.676;2023-12-29T14:00:14;24.60;42.60
47825;DHT22;33589;48.242;14.676;2023-12-29T14:02:40;24.50;42.70
47825;DHT22;33589;48.242;14.676;2023-12-29T14:05:19;24.60;42.60
47825;DHT22;33589;48.242;14.676;2023-12-29T14:10:30;24.60;42.50
47825;DHT22;33589;48.242;14.676;2023-12-29T14:13:07;24.60;42.70
47825;DHT22;33589;48.242;14.676;2023-12-29T14:15:40;24.50;42.40
47825;DHT22;33589;48.242;14.676;2023-12-29T14:20:39;24.60;42.80
47825;DHT22;33589;48.242;14.676;2023-12-29T14:23:06;24.50;42.70
47825;DHT22;33589;48.242;14.676;2023-12-29T14:25:36;24.60;42.80
47825;DHT22;33589;48.242;14.676;2023-12-29T14:28:19;24.60;42.90
47825;DHT22;33589;48.242;14.676;2023-12-29T14:30:45;24.50;42.80
47825;DHT22;33589;48.242;14.676;2023-12-29T14:33:11;24.60;43.00
47825;DHT22;33589;48.242;14.676;2023-12-29T14:35:37;24.60;42.80
47825;DHT22;33589;48.242;14.676;2023-12-29T14:38:03;24.60;42.90
47825;DHT22;33589;48.242;14.676;2023-12-29T14:40:29;24.60;42.80
47825;DHT22;33589;48.242;14.676;2023-12-29T14:42:55;24.60;43.00
47825;DHT22;33589;48.242;14.676;2023-12-29T14:45:21;24.60;42.90
47825;DHT22;33589;48.242;14.676;2023-12-29T14:47:47;24.60;43.00
47825;DHT22;33589;48.242;14.676;2023-12-29T14:50:15;24.60;42.90
47825;DHT22;33589;48.242;14.676;2023-12-29T14:52:41;24.60;43.00
47825;DHT22;33589;48.242;14.676;2023-12-29T14:55:07;24.60;43.10
47825;DHT22;33589;48.242;14.676;2023-12-29T14:57:32;24.60;43.10
47825;DHT22;33589;48.242;14.676;2023-12-29T14:59:58;24.60;42.90
47825;DHT22;33589;48.242;14.676;2023-12-29T15:02:24;24.60;43.10
47825;DHT22;33589;48.242;14.676;2023-12-29T15:04:50;24.60;42.90
47825;DHT22;33589;48.242;14.676;2023-12-29T15:07:16;24.60;43.00
47825;DHT22;33589;48.242;14.676;2023-12-29T15:09:43;24.60;42.90
47825;DHT22;33589;48.242;14.676;2023-12-29T15:12:09;24.60;42.90
47825;DHT22;33589;48.242;14.676;2023-12-29T15:14:35;24.60;42.90
47825;DHT22;33589;48.242;14.676;2023-12-29T15:17:01;24.50;43.00
47825;DHT22;33589;48.242;14.676;2023-12-29T15:19:27;24.60;42.90
47825;DHT22;33589;48.242;14.676;2023-12-29T15:21:52;24.60;43.10
47825;DHT22;33589;48.242;14.676;2023-12-29T15:24:22;24.60;43.00
47825;DHT22;33589;48.242;14.676;2023-12-29T15:26:48;24.60;43.10
47825;DHT22;33589;48.242;14.676;2023-12-29T15:29:14;24.50;42.90
47825;DHT22;33589;48.242;14.676;2023-12-29T15:31:43;24.50;43.00
47825;DHT22;33589;48.242;14.676;2023-12-29T15:34:10;24.60;43.00
47825;DHT22;33589;48.242;14.676;2023-12-29T15:36:36;24.60;43.00
47825;DHT22;33589;48.242;14.676;2023-12-29T15:39:02;24.50;42.70